createdAt,value
2022-12-27T00:00:00.837Z,3.08
2022-12-27T00:02:27.784Z,2.72
2022-12-27T00:04:54.865Z,2.70
2022-12-27T00:07:21.750Z,3.10
2022-12-27T00:09:48.765Z,2.80
2022-12-27T00:12:15.744Z,3.17
2022-12-27T00:14:42.677Z,2.88
2022-12-27T00:17:09.653Z,2.70
2022-12-27T00:19:36.671Z,3.08
2022-12-27T00:22:05.424Z,3.08
2022-12-27T00:24:35.771Z,3.63
2022-12-27T00:27:02.708Z,3.38
2022-12-27T00:29:29.695Z,2.78
2022-12-27T00:31:56.693Z,3.30
2022-12-27T00:34:23.701Z,3.33
2022-12-27T00:36:53.356Z,3.92
2022-12-27T00:39:20.377Z,3.35
2022-12-27T00:41:47.453Z,3.50
2022-12-27T00:44:14.394Z,4.05
2022-12-27T00:46:41.338Z,3.80
2022-12-27T00:49:08.336Z,4.95
2022-12-27T00:51:35.287Z,4.25
2022-12-27T00:54:02.279Z,4.20
2022-12-27T00:56:30.986Z,4.15
2022-12-27T00:59:00.269Z,5.43
2022-12-27T01:01:29.551Z,5.05
2022-12-27T01:03:57.865Z,5.47
2022-12-27T01:06:28.967Z,4.93
2022-12-27T01:08:56.927Z,4.72
2022-12-27T01:11:26.858Z,4.15
2022-12-27T01:13:56.641Z,5.18
2022-12-27T01:16:25.233Z,4.78
2022-12-27T01:18:52.615Z,5.32
2022-12-27T01:21:22.511Z,4.65
2022-12-27T01:23:50.084Z,4.78
2022-12-27T01:26:19.900Z,4.78
2022-12-27T01:28:47.845Z,4.90
2022-12-27T01:31:21.672Z,5.35
2022-12-27T01:33:49.299Z,5.07
2022-12-27T01:36:24.475Z,4.90
2022-12-27T01:38:51.729Z,5.43
2022-12-27T01:41:42.051Z,4.78
2022-12-27T01:44:42.864Z,5.20
2022-12-27T01:47:17.613Z,4.70
2022-12-27T01:50:16.666Z,5.18
2022-12-27T01:52:52.860Z,5.20
2022-12-27T01:55:29.876Z,4.85
2022-12-27T01:58:02.421Z,4.78
2022-12-27T02:00:29.523Z,4.60
2022-12-27T02:02:57.151Z,4.57
2022-12-27T02:05:25.982Z,4.97
2022-12-27T02:08:03.286Z,5.03
2022-12-27T02:10:31.593Z,4.75
2022-12-27T02:12:59.738Z,4.80
2022-12-27T02:15:26.616Z,4.65
2022-12-27T02:17:53.537Z,5.13
2022-12-27T02:20:23.434Z,5.20
2022-12-27T02:23:39.928Z,4.97
2022-12-27T02:26:21.911Z,4.63
2022-12-27T02:29:08.542Z,4.70
2022-12-27T02:31:47.383Z,5.20
2022-12-27T02:34:25.291Z,4.90
2022-12-27T02:36:56.514Z,4.90
2022-12-27T02:39:25.199Z,5.50
2022-12-27T02:42:11.954Z,5.07
2022-12-27T02:44:57.407Z,4.57
2022-12-27T02:47:44.739Z,5.07
2022-12-27T02:50:33.394Z,5.43
2022-12-27T02:53:07.921Z,5.43
2022-12-27T02:56:11.681Z,5.63
2022-12-27T02:58:55.656Z,6.07
2022-12-27T03:01:53.240Z,5.32
2022-12-27T03:04:46.536Z,4.97
2022-12-27T03:07:38.298Z,5.30
2022-12-27T03:10:37.202Z,5.80
2022-12-27T03:13:37.792Z,5.35
2022-12-27T03:16:16.593Z,5.43
2022-12-27T03:18:46.417Z,5.72
2022-12-27T03:21:41.507Z,5.55
2022-12-27T03:24:27.872Z,4.28
2022-12-27T03:26:55.955Z,5.82
2022-12-27T03:29:41.903Z,5.80
2022-12-27T03:32:29.852Z,5.25
2022-12-27T03:35:14.095Z,6.22
2022-12-27T03:38:05.085Z,6.15
2022-12-27T03:41:09.773Z,5.82
2022-12-27T03:43:39.401Z,6.68
2022-12-27T03:46:27.784Z,6.07
2022-12-27T03:49:15.048Z,6.35
2022-12-27T03:52:14.044Z,7.40
2022-12-27T03:54:43.115Z,7.78
2022-12-27T03:57:12.881Z,8.32
2022-12-27T03:59:39.916Z,7.60
2022-12-27T04:02:08.629Z,8.05
2022-12-27T04:04:36.142Z,8.45
2022-12-27T04:07:04.631Z,8.27
2022-12-27T04:09:49.939Z,7.95
2022-12-27T04:12:35.656Z,8.45
2022-12-27T04:15:21.297Z,8.85
2022-12-27T04:18:06.859Z,9.48
2022-12-27T04:20:52.130Z,9.20
2022-12-27T04:23:37.756Z,9.63
2022-12-27T04:26:23.406Z,9.45
2022-12-27T04:29:08.984Z,9.27
2022-12-27T04:31:54.380Z,9.88
2022-12-27T04:37:07.003Z,9.40
2022-12-27T04:39:33.913Z,9.52
2022-12-27T04:42:19.932Z,9.98
2022-12-27T04:45:07.875Z,9.48
2022-12-27T04:47:58.349Z,9.45
2022-12-27T04:50:48.206Z,10.73
2022-12-27T04:53:40.243Z,9.13
2022-12-27T04:56:07.864Z,9.07
2022-12-27T04:58:35.262Z,9.00
2022-12-27T05:01:22.715Z,9.27
2022-12-27T05:03:52.855Z,10.98
2022-12-27T05:06:19.983Z,9.55
2022-12-27T05:09:05.905Z,9.48
2022-12-27T05:11:51.695Z,9.35
2022-12-27T05:14:18.603Z,9.45
2022-12-27T05:16:45.674Z,9.80
2022-12-27T05:19:14.168Z,9.88
2022-12-27T05:22:04.297Z,9.57
2022-12-27T05:24:50.044Z,9.32
2022-12-27T05:27:18.000Z,9.02
2022-12-27T05:29:45.720Z,9.15
2022-12-27T05:32:13.526Z,9.50
2022-12-27T05:34:41.119Z,9.18
2022-12-27T05:37:08.371Z,9.35
2022-12-27T05:39:35.548Z,9.05
2022-12-27T05:42:03.315Z,8.38
2022-12-27T05:44:30.448Z,8.82
2022-12-27T05:46:57.420Z,8.30
2022-12-27T05:49:24.382Z,8.75
2022-12-27T05:51:51.286Z,8.32
2022-12-27T05:54:18.180Z,9.13
2022-12-27T05:56:45.135Z,8.18
2022-12-27T05:59:15.038Z,8.60
2022-12-27T06:01:42.036Z,8.13
2022-12-27T06:04:10.460Z,7.65
2022-12-27T06:06:37.244Z,8.15
2022-12-27T06:09:04.049Z,7.65
2022-12-27T06:11:30.784Z,7.80
2022-12-27T06:13:57.505Z,7.72
2022-12-27T06:16:24.342Z,7.30
2022-12-27T06:18:51.291Z,8.45
2022-12-27T06:21:20.739Z,8.10
2022-12-27T06:23:48.333Z,8.02
2022-12-27T06:26:26.226Z,7.68
2022-12-27T06:28:55.091Z,8.05
2022-12-27T06:31:22.922Z,7.68
2022-12-27T06:33:51.232Z,9.00
2022-12-27T06:36:20.659Z,8.30
2022-12-27T06:38:48.043Z,8.32
2022-12-27T06:41:17.576Z,8.85
2022-12-27T06:43:45.625Z,8.75
2022-12-27T06:46:18.781Z,8.82
2022-12-27T06:48:48.756Z,8.98
2022-12-27T06:51:17.596Z,8.90
2022-12-27T06:53:44.413Z,9.55
2022-12-27T06:56:16.584Z,9.13
2022-12-27T06:58:44.034Z,9.00
2022-12-27T07:01:13.172Z,9.73
2022-12-27T07:03:40.755Z,10.70
2022-12-27T07:06:09.697Z,9.80
2022-12-27T07:08:36.586Z,9.88
2022-12-27T07:11:07.339Z,9.57
2022-12-27T07:13:39.102Z,9.82
2022-12-27T07:16:07.556Z,9.95
2022-12-27T07:18:35.083Z,9.02
2022-12-27T07:21:09.696Z,11.13
2022-12-27T07:23:36.694Z,11.90
2022-12-27T07:26:04.878Z,10.10
2022-12-27T07:28:34.686Z,9.23
2022-12-27T07:31:07.240Z,9.93
2022-12-27T07:33:34.626Z,10.68
2022-12-27T07:36:02.080Z,9.35
2022-12-27T07:38:28.975Z,11.18
2022-12-27T07:41:02.199Z,10.35
2022-12-27T07:43:33.878Z,10.48
2022-12-27T07:46:08.507Z,10.45
2022-12-27T07:48:35.764Z,10.93
2022-12-27T07:51:03.746Z,10.98
2022-12-27T07:53:30.789Z,11.32
2022-12-27T07:55:58.101Z,19.17
2022-12-27T07:58:25.136Z,11.48
2022-12-27T08:00:53.253Z,10.73
2022-12-27T08:03:20.338Z,9.98
2022-12-27T08:05:49.589Z,9.40
2022-12-27T08:08:17.916Z,10.52
2022-12-27T08:10:44.995Z,9.93
2022-12-27T08:13:11.770Z,10.57
2022-12-27T08:15:41.851Z,9.73
2022-12-27T08:18:09.120Z,10.32
2022-12-27T08:20:36.520Z,9.80
2022-12-27T08:23:03.324Z,9.63
2022-12-27T08:25:30.178Z,9.52
2022-12-27T08:28:08.289Z,9.73
2022-12-27T08:30:35.157Z,9.70
2022-12-27T08:33:15.476Z,9.70
2022-12-27T08:35:53.719Z,9.13
2022-12-27T08:38:21.359Z,9.85
2022-12-27T08:40:48.186Z,9.50
2022-12-27T08:43:15.089Z,9.73
2022-12-27T08:45:42.289Z,9.57
2022-12-27T08:48:09.493Z,9.68
2022-12-27T08:50:36.342Z,9.32
2022-12-27T08:53:04.704Z,13.80
2022-12-27T08:55:32.177Z,9.82
2022-12-27T08:58:00.734Z,10.23
2022-12-27T09:00:28.930Z,11.10
2022-12-27T09:02:59.239Z,9.05
2022-12-27T09:05:27.175Z,8.90
2022-12-27T09:07:54.488Z,8.32
2022-12-27T09:10:22.481Z,8.18
2022-12-27T09:12:49.312Z,8.85
2022-12-27T09:15:16.620Z,8.07
2022-12-27T09:17:43.865Z,8.48
2022-12-27T09:20:12.346Z,8.75
2022-12-27T09:22:40.074Z,9.95
2022-12-27T09:25:08.016Z,8.55
2022-12-27T09:27:36.725Z,8.13
2022-12-27T09:30:05.369Z,8.07
2022-12-27T09:32:32.379Z,7.75
2022-12-27T09:34:59.288Z,7.90
2022-12-27T09:37:26.099Z,8.00
2022-12-27T09:39:52.924Z,8.50
2022-12-27T09:43:16.217Z,8.02
2022-12-27T09:45:52.013Z,6.18
2022-12-27T09:48:33.590Z,7.10
2022-12-27T09:51:06.922Z,7.28
2022-12-27T09:53:47.607Z,8.20
2022-12-27T09:56:25.099Z,6.85
2022-12-27T09:59:03.445Z,7.22
2022-12-27T10:01:40.550Z,8.35
2022-12-27T10:04:14.236Z,8.07
2022-12-27T10:06:50.382Z,7.20
2022-12-27T10:09:19.956Z,7.28
2022-12-27T10:12:29.675Z,7.20
2022-12-27T10:15:23.089Z,7.13
2022-12-27T10:18:16.133Z,6.85
2022-12-27T10:20:51.956Z,7.78
2022-12-27T10:23:28.355Z,7.03
2022-12-27T10:26:16.769Z,6.72
2022-12-27T10:28:54.330Z,6.90
2022-12-27T10:31:25.096Z,7.07
2022-12-27T10:33:52.534Z,6.80
2022-12-27T10:36:23.666Z,6.90
2022-12-27T10:38:50.473Z,6.82
2022-12-27T10:41:25.130Z,6.82
2022-12-27T10:43:53.947Z,7.85
2022-12-27T10:46:30.732Z,7.38
2022-12-27T10:49:20.662Z,6.55
2022-12-27T10:51:49.748Z,6.72
2022-12-27T10:54:28.826Z,7.00
2022-12-27T10:56:58.294Z,6.68
2022-12-27T10:59:27.711Z,6.28
2022-12-27T11:02:00.845Z,7.20
2022-12-27T11:04:29.826Z,6.95
2022-12-27T11:07:02.432Z,6.55
2022-12-27T11:09:46.266Z,6.85
2022-12-27T11:12:24.951Z,6.57
2022-12-27T11:15:15.792Z,6.72
2022-12-27T11:17:51.389Z,6.70
2022-12-27T11:20:22.921Z,7.45
2022-12-27T11:22:49.627Z,6.45
2022-12-27T11:25:16.792Z,6.30
2022-12-27T11:27:52.953Z,6.22
2022-12-27T11:30:29.119Z,6.72
2022-12-27T11:32:59.734Z,6.25
2022-12-27T11:35:26.809Z,6.72
2022-12-27T11:37:53.735Z,5.93
2022-12-27T11:40:34.640Z,6.43
2022-12-27T11:43:12.507Z,6.15
2022-12-27T11:45:44.289Z,5.85
2022-12-27T11:48:25.923Z,6.18
2022-12-27T11:51:23.670Z,6.28
2022-12-27T11:54:20.682Z,6.10
2022-12-27T11:57:14.097Z,6.53
2022-12-27T11:59:55.212Z,6.80
2022-12-27T12:02:32.289Z,7.22
2022-12-27T12:05:11.203Z,7.00
2022-12-27T12:07:46.907Z,6.60
2022-12-27T12:10:41.144Z,6.47
2022-12-27T12:13:07.883Z,5.93
2022-12-27T12:16:16.308Z,7.00
2022-12-27T12:19:00.377Z,6.90
2022-12-27T12:21:56.969Z,6.72
2022-12-27T12:24:29.565Z,6.55
2022-12-27T12:27:17.532Z,6.88
2022-12-27T12:30:11.738Z,6.75
2022-12-27T12:32:56.200Z,7.35
2022-12-27T12:35:40.750Z,7.85
2022-12-27T12:38:22.738Z,4.88
2022-12-27T12:41:11.894Z,7.53
2022-12-27T12:44:10.460Z,6.40
2022-12-27T12:46:52.550Z,7.35
2022-12-27T12:49:48.521Z,7.07
2022-12-27T12:52:53.125Z,6.80
2022-12-27T12:55:38.178Z,7.20
2022-12-27T12:58:37.494Z,6.97
2022-12-27T13:01:10.433Z,6.28
2022-12-27T13:04:07.280Z,6.63
2022-12-27T13:06:55.320Z,6.50
2022-12-27T13:09:34.156Z,6.65
2022-12-27T13:12:21.402Z,6.80
2022-12-27T13:15:33.125Z,6.97
2022-12-27T13:18:30.662Z,7.40
2022-12-27T13:21:11.938Z,6.55
2022-12-27T13:23:51.091Z,6.70
2022-12-27T13:26:21.205Z,6.43
2022-12-27T13:29:24.651Z,6.70
2022-12-27T13:31:59.025Z,7.05
2022-12-27T13:35:00.898Z,4.80
2022-12-27T13:37:55.820Z,5.93
2022-12-27T13:40:50.789Z,5.07
2022-12-27T13:43:49.213Z,4.70
2022-12-27T13:46:42.610Z,6.18
2022-12-27T13:49:39.160Z,5.65
2022-12-27T13:52:47.804Z,6.13
2022-12-27T13:55:35.959Z,5.80
2022-12-27T13:58:26.022Z,6.40
2022-12-27T14:01:05.409Z,6.47
2022-12-27T14:03:58.114Z,7.60
2022-12-27T14:06:35.290Z,5.85
2022-12-27T14:09:44.868Z,6.57
2022-12-27T14:12:44.776Z,7.03
2022-12-27T14:15:22.283Z,6.78
2022-12-27T14:18:02.491Z,5.88
2022-12-27T14:21:00.529Z,6.47
2022-12-27T14:23:34.322Z,5.90
2022-12-27T14:26:33.605Z,6.38
2022-12-27T14:29:22.229Z,5.93
2022-12-27T14:32:10.259Z,6.13
2022-12-27T14:35:03.118Z,6.82
2022-12-27T14:38:00.814Z,6.47
2022-12-27T14:40:58.762Z,7.15
2022-12-27T14:43:28.670Z,7.00
2022-12-27T14:46:22.764Z,6.75
2022-12-27T14:49:26.780Z,7.45
2022-12-27T14:52:38.369Z,8.32
2022-12-27T14:55:42.865Z,8.25
2022-12-27T14:58:16.171Z,10.15
2022-12-27T15:01:23.196Z,10.57
2022-12-27T15:04:03.824Z,10.05
2022-12-27T15:07:09.401Z,10.50
2022-12-27T15:09:45.528Z,6.90
2022-12-27T15:12:24.671Z,10.15
2022-12-27T15:15:15.517Z,11.00
2022-12-27T15:17:55.301Z,11.75
2022-12-27T15:20:50.309Z,11.57
2022-12-27T15:23:32.120Z,10.52
2022-12-27T15:26:25.038Z,12.40
2022-12-27T15:29:16.408Z,12.98
2022-12-27T15:32:02.450Z,12.27
2022-12-27T15:34:50.781Z,12.73
2022-12-27T15:37:45.743Z,13.45
2022-12-27T15:40:33.731Z,10.93
2022-12-27T15:43:04.413Z,12.38
2022-12-27T15:46:09.312Z,12.30
2022-12-27T15:48:42.022Z,12.15
2022-12-27T15:51:38.052Z,11.52
2022-12-27T15:54:20.817Z,10.93
2022-12-27T15:57:25.243Z,11.07
2022-12-27T16:00:14.409Z,11.18
2022-12-27T16:02:44.379Z,11.77
2022-12-27T16:05:19.369Z,10.73
2022-12-27T16:07:58.419Z,10.68
2022-12-27T16:10:31.650Z,10.20
2022-12-27T16:13:00.416Z,11.52
2022-12-27T16:15:44.831Z,9.85
2022-12-27T16:18:18.327Z,7.07
2022-12-27T16:21:25.045Z,9.07
2022-12-27T16:24:03.191Z,10.07
2022-12-27T16:26:35.988Z,8.15
2022-12-27T16:29:07.653Z,8.52
2022-12-27T16:31:45.137Z,9.90
2022-12-27T16:34:30.595Z,11.05
2022-12-27T16:36:59.670Z,9.63
2022-12-27T16:39:52.607Z,9.80
2022-12-27T16:42:28.885Z,9.95
2022-12-27T16:45:25.268Z,10.02
2022-12-27T16:48:37.795Z,9.40
2022-12-27T16:51:23.008Z,9.52
2022-12-27T16:54:11.725Z,9.68
2022-12-27T16:56:44.922Z,7.93
2022-12-27T16:59:49.462Z,12.63
2022-12-27T17:02:40.152Z,8.07
2022-12-27T17:05:16.484Z,6.85
2022-12-27T17:10:42.241Z,7.32
2022-12-27T17:13:30.372Z,6.70
2022-12-27T17:16:01.689Z,8.35
2022-12-27T17:18:30.699Z,7.45
2022-12-27T17:21:18.287Z,7.32
2022-12-27T17:23:48.766Z,6.93
2022-12-27T17:26:15.670Z,7.95
2022-12-27T17:28:56.018Z,6.72
2022-12-27T17:31:34.448Z,6.63
2022-12-27T17:34:13.214Z,6.70
2022-12-27T17:37:14.585Z,7.20
2022-12-27T17:39:58.336Z,6.13
2022-12-27T17:43:05.332Z,7.15
2022-12-27T17:45:55.425Z,6.50
2022-12-27T17:48:32.102Z,6.22
2022-12-27T17:51:05.832Z,6.88
2022-12-27T17:53:51.578Z,6.25
2022-12-27T17:56:41.834Z,7.45
2022-12-27T17:59:24.853Z,5.75
2022-12-27T18:02:05.810Z,6.93
2022-12-27T18:04:36.906Z,6.07
2022-12-27T18:07:09.171Z,6.15
2022-12-27T18:09:47.388Z,5.75
2022-12-27T18:12:34.738Z,6.30
2022-12-27T18:15:07.820Z,6.65
2022-12-27T18:17:55.733Z,5.70
2022-12-27T18:20:37.065Z,5.50
2022-12-27T18:23:04.036Z,5.80
2022-12-27T18:25:49.245Z,5.70
2022-12-27T18:28:25.903Z,6.50
2022-12-27T18:31:24.836Z,5.93
2022-12-27T18:34:09.020Z,5.93
2022-12-27T18:36:47.351Z,5.90
2022-12-27T18:39:31.910Z,5.25
2022-12-27T18:42:02.332Z,4.60
2022-12-27T18:44:44.390Z,4.93
2022-12-27T18:47:19.568Z,6.05
2022-12-27T18:49:51.854Z,5.32
2022-12-27T18:52:30.130Z,4.95
2022-12-27T18:55:14.223Z,4.72
2022-12-27T18:57:41.139Z,4.22
2022-12-27T19:00:22.125Z,4.60
2022-12-27T19:02:51.286Z,4.20
2022-12-27T19:05:22.112Z,4.75
2022-12-27T19:08:09.045Z,4.68
2022-12-27T19:10:37.663Z,4.10
2022-12-27T19:13:05.317Z,3.72
2022-12-27T19:15:44.206Z,4.47
2022-12-27T19:18:25.469Z,3.63
2022-12-27T19:20:59.036Z,3.70
2022-12-27T19:23:39.678Z,3.58
2022-12-27T19:26:16.196Z,3.53
2022-12-27T19:28:45.369Z,4.18
2022-12-27T19:31:21.593Z,3.45
2022-12-27T19:33:53.728Z,4.38
2022-12-27T19:36:33.722Z,3.10
2022-12-27T19:39:01.517Z,3.20
2022-12-27T19:41:29.089Z,2.60
2022-12-27T19:43:56.798Z,3.60
2022-12-27T19:46:30.808Z,2.75
2022-12-27T19:51:45.968Z,3.15
2022-12-27T19:54:21.936Z,2.97
2022-12-27T19:56:49.662Z,3.85
2022-12-27T19:59:19.263Z,3.35
2022-12-27T20:01:47.129Z,3.40
2022-12-27T20:04:15.266Z,3.15
2022-12-27T20:06:43.355Z,2.72
2022-12-27T20:09:14.836Z,3.33
2022-12-27T20:11:42.952Z,3.47
2022-12-27T20:14:10.160Z,2.53
2022-12-27T20:16:37.141Z,2.83
2022-12-27T20:19:04.232Z,3.45
2022-12-27T20:21:31.271Z,3.40
2022-12-27T20:23:58.158Z,3.28
2022-12-27T20:26:26.209Z,3.08
2022-12-27T20:28:53.871Z,3.17
2022-12-27T20:31:21.727Z,3.17
2022-12-27T20:33:53.767Z,3.38
2022-12-27T20:36:21.738Z,3.40
2022-12-27T20:38:48.769Z,3.35
2022-12-27T20:41:18.440Z,2.90
2022-12-27T20:43:45.543Z,2.97
2022-12-27T20:46:18.668Z,3.17
2022-12-27T20:48:46.696Z,2.63
2022-12-27T20:51:17.288Z,2.72
2022-12-27T20:53:45.384Z,2.38
2022-12-27T20:56:13.640Z,3.38
2022-12-27T20:58:40.506Z,2.97
2022-12-27T21:01:09.385Z,2.55
2022-12-27T21:03:37.901Z,2.42
2022-12-27T21:06:09.907Z,3.03
2022-12-27T21:08:45.461Z,2.92
2022-12-27T21:11:16.862Z,2.63
2022-12-27T21:13:45.077Z,2.75
2022-12-27T21:16:14.251Z,2.70
2022-12-27T21:18:42.349Z,3.53
2022-12-27T21:21:13.265Z,2.70
2022-12-27T21:23:40.937Z,2.50
2022-12-27T21:26:11.004Z,2.50
2022-12-27T21:28:38.642Z,2.72
2022-12-27T21:31:06.499Z,3.08
2022-12-27T21:33:35.153Z,2.45
2022-12-27T21:36:11.064Z,2.65
2022-12-27T21:38:38.166Z,3.22
2022-12-27T21:41:11.212Z,2.22
2022-12-27T21:43:38.077Z,2.40
2022-12-27T21:46:37.768Z,2.55
2022-12-27T21:49:07.470Z,2.78
2022-12-27T21:51:35.749Z,2.88
2022-12-27T21:54:03.347Z,2.70
2022-12-27T21:56:30.377Z,2.25
2022-12-27T21:58:59.017Z,4.65
2022-12-27T22:01:31.102Z,2.35
2022-12-27T22:04:17.810Z,4.28
2022-12-27T22:06:47.231Z,3.92
2022-12-27T22:09:14.936Z,2.88
2022-12-27T22:11:41.760Z,2.45
2022-12-27T22:14:08.935Z,2.20
2022-12-27T22:16:38.470Z,2.13
2022-12-27T22:19:10.029Z,2.30
2022-12-27T22:21:38.605Z,2.72
2022-12-27T22:24:06.611Z,2.08
2022-12-27T22:26:39.393Z,2.25
2022-12-27T22:29:07.964Z,2.40
2022-12-27T22:31:37.962Z,2.67
2022-12-27T22:34:06.340Z,2.60
2022-12-27T22:36:33.555Z,3.05
2022-12-27T22:39:01.543Z,2.65
2022-12-27T22:41:31.531Z,2.42
2022-12-27T22:44:01.256Z,2.20
2022-12-27T22:46:51.068Z,3.00
2022-12-27T22:49:17.313Z,2.42
2022-12-27T22:51:44.456Z,3.20
2022-12-27T22:54:11.508Z,2.78
2022-12-27T22:56:42.540Z,2.30
2022-12-27T22:59:11.806Z,2.40
2022-12-27T23:01:39.648Z,2.53
2022-12-27T23:04:08.370Z,2.45
2022-12-27T23:06:36.203Z,3.10
2022-12-27T23:09:04.357Z,2.85
2022-12-27T23:11:37.598Z,2.20
2022-12-27T23:14:07.350Z,2.10
2022-12-27T23:16:41.730Z,2.40
2022-12-27T23:19:09.846Z,2.80
2022-12-27T23:21:37.027Z,2.40
2022-12-27T23:24:04.967Z,2.60
2022-12-27T23:26:31.803Z,3.10
2022-12-27T23:28:58.683Z,2.42
2022-12-27T23:31:26.146Z,2.70
2022-12-27T23:33:53.529Z,2.60
2022-12-27T23:36:21.247Z,2.40
2022-12-27T23:38:48.585Z,2.65
2022-12-27T23:41:23.729Z,2.20
2022-12-27T23:43:53.961Z,2.63
2022-12-27T23:46:25.000Z,2.60
2022-12-27T23:48:52.177Z,2.67
2022-12-27T23:51:19.394Z,2.15
2022-12-27T23:53:46.612Z,2.50
2022-12-27T23:56:15.139Z,2.53
2022-12-27T23:58:42.726Z,2.28
